Saint Helens, Oregon
Current Conditions -  °F | °C
As of 12:27 PM on Monday 26 Jan 2015 (Local Time) from KSPB Reporting Station
Haze Haze  
Wind Chill: 41°   Ceiling: 100
Heat Index: 44°   Visibility: 1.2mi
Dew Point: 43°   Wind: 6mph
Humidity: 96%   Direction: 140°SE
Pressure: 30.02"   Gusts: NA
Location:  45.86°N, 122.81°W
Report Text: KSPB 262027Z AUTO 14005KT 1 1/4SM BR OVC001 07/06 A3002 RMK AO2 T00670061
Loading
Personal Weather Stations






























Interactive Weather Map New forecast layout! Learn more

10-Day Weather Forecast

Advertisements
Track Severe Weather on mobile